sensor_id;sensor_type;location;lat;lon;timestamp;P1;durP1;ratioP1;P2;durP2;ratioP2
39448;SDS011;25151;45.566;9.382;2022-12-26T00:00:39;9.45;;;7.50;;
39448;SDS011;25151;45.566;9.382;2022-12-26T00:03:39;12.98;;;8.20;;
39448;SDS011;25151;45.566;9.382;2022-12-26T00:06:40;10.35;;;8.15;;
39448;SDS011;25151;45.566;9.382;2022-12-26T00:09:41;11.68;;;8.60;;
39448;SDS011;25151;45.566;9.382;2022-12-26T00:12:41;10.13;;;8.00;;
39448;SDS011;25151;45.566;9.382;2022-12-26T00:15:45;9.95;;;7.43;;
39448;SDS011;25151;45.566;9.382;2022-12-26T00:18:46;9.50;;;8.18;;
39448;SDS011;25151;45.566;9.382;2022-12-26T00:21:46;9.98;;;8.25;;
39448;SDS011;25151;45.566;9.382;2022-12-26T00:24:47;11.00;;;8.32;;
39448;SDS011;25151;45.566;9.382;2022-12-26T00:27:48;9.82;;;7.75;;
39448;SDS011;25151;45.566;9.382;2022-12-26T00:30:48;9.65;;;7.85;;
39448;SDS011;25151;45.566;9.382;2022-12-26T00:33:49;10.98;;;8.23;;
39448;SDS011;25151;45.566;9.382;2022-12-26T00:36:49;10.43;;;8.65;;
39448;SDS011;25151;45.566;9.382;2022-12-26T00:39:50;9.82;;;8.35;;
39448;SDS011;25151;45.566;9.382;2022-12-26T00:42:51;9.80;;;8.00;;
39448;SDS011;25151;45.566;9.382;2022-12-26T00:45:51;10.68;;;7.55;;
39448;SDS011;25151;45.566;9.382;2022-12-26T00:48:52;10.65;;;8.07;;
39448;SDS011;25151;45.566;9.382;2022-12-26T00:51:53;8.75;;;7.68;;
39448;SDS011;25151;45.566;9.382;2022-12-26T00:54:53;9.30;;;8.18;;
39448;SDS011;25151;45.566;9.382;2022-12-26T00:57:56;10.52;;;8.82;;
39448;SDS011;25151;45.566;9.382;2022-12-26T01:01:12;9.27;;;7.95;;
39448;SDS011;25151;45.566;9.382;2022-12-26T01:04:19;10.00;;;8.10;;
39448;SDS011;25151;45.566;9.382;2022-12-26T01:07:20;10.32;;;8.43;;
39448;SDS011;25151;45.566;9.382;2022-12-26T01:10:21;10.30;;;8.00;;
39448;SDS011;25151;45.566;9.382;2022-12-26T01:13:21;9.98;;;7.95;;
39448;SDS011;25151;45.566;9.382;2022-12-26T01:16:22;11.98;;;9.57;;
39448;SDS011;25151;45.566;9.382;2022-12-26T01:19:22;10.45;;;8.52;;
39448;SDS011;25151;45.566;9.382;2022-12-26T01:22:24;9.38;;;8.02;;
39448;SDS011;25151;45.566;9.382;2022-12-26T01:25:25;10.95;;;8.73;;
39448;SDS011;25151;45.566;9.382;2022-12-26T01:28:26;8.77;;;7.85;;
39448;SDS011;25151;45.566;9.382;2022-12-26T01:31:26;11.43;;;8.43;;
39448;SDS011;25151;45.566;9.382;2022-12-26T01:34:27;10.80;;;8.40;;
39448;SDS011;25151;45.566;9.382;2022-12-26T01:37:27;12.07;;;9.13;;
39448;SDS011;25151;45.566;9.382;2022-12-26T01:40:28;9.55;;;8.50;;
39448;SDS011;25151;45.566;9.382;2022-12-26T01:43:44;12.85;;;9.27;;
39448;SDS011;25151;45.566;9.382;2022-12-26T01:46:56;10.30;;;8.50;;
39448;SDS011;25151;45.566;9.382;2022-12-26T01:49:57;10.75;;;8.82;;
39448;SDS011;25151;45.566;9.382;2022-12-26T01:52:59;9.82;;;8.07;;
39448;SDS011;25151;45.566;9.382;2022-12-26T01:56:06;11.23;;;8.82;;
39448;SDS011;25151;45.566;9.382;2022-12-26T01:59:16;10.05;;;8.95;;
39448;SDS011;25151;45.566;9.382;2022-12-26T02:02:21;11.52;;;8.50;;
39448;SDS011;25151;45.566;9.382;2022-12-26T02:05:26;9.75;;;8.45;;
39448;SDS011;25151;45.566;9.382;2022-12-26T02:08:35;12.35;;;8.23;;
39448;SDS011;25151;45.566;9.382;2022-12-26T02:11:41;12.57;;;8.27;;
39448;SDS011;25151;45.566;9.382;2022-12-26T02:14:49;9.93;;;8.15;;
39448;SDS011;25151;45.566;9.382;2022-12-26T02:17:50;10.70;;;8.43;;
39448;SDS011;25151;45.566;9.382;2022-12-26T02:31:30;10.77;;;9.25;;
39448;SDS011;25151;45.566;9.382;2022-12-26T02:34:54;12.07;;;8.45;;
39448;SDS011;25151;45.566;9.382;2022-12-26T02:41:43;10.60;;;8.48;;
39448;SDS011;25151;45.566;9.382;2022-12-26T02:52:20;9.32;;;8.32;;
39448;SDS011;25151;45.566;9.382;2022-12-26T02:55:47;9.45;;;8.07;;
39448;SDS011;25151;45.566;9.382;2022-12-26T02:59:30;10.95;;;8.98;;
39448;SDS011;25151;45.566;9.382;2022-12-26T03:03:02;10.35;;;7.97;;
39448;SDS011;25151;45.566;9.382;2022-12-26T03:06:26;9.95;;;7.57;;
39448;SDS011;25151;45.566;9.382;2022-12-26T03:09:49;10.00;;;8.70;;
39448;SDS011;25151;45.566;9.382;2022-12-26T03:13:24;9.07;;;7.78;;
39448;SDS011;25151;45.566;9.382;2022-12-26T03:16:32;11.05;;;8.68;;
39448;SDS011;25151;45.566;9.382;2022-12-26T03:23:06;10.85;;;8.27;;
39448;SDS011;25151;45.566;9.382;2022-12-26T03:26:14;9.30;;;8.20;;
39448;SDS011;25151;45.566;9.382;2022-12-26T03:29:38;10.77;;;9.30;;
39448;SDS011;25151;45.566;9.382;2022-12-26T03:32:57;9.05;;;7.97;;
39448;SDS011;25151;45.566;9.382;2022-12-26T03:35:58;9.88;;;8.77;;
39448;SDS011;25151;45.566;9.382;2022-12-26T03:49:43;12.48;;;8.48;;
39448;SDS011;25151;45.566;9.382;2022-12-26T03:53:52;10.88;;;8.52;;
39448;SDS011;25151;45.566;9.382;2022-12-26T03:57:02;9.82;;;8.63;;
39448;SDS011;25151;45.566;9.382;2022-12-26T04:00:27;10.32;;;8.20;;
39448;SDS011;25151;45.566;9.382;2022-12-26T04:03:49;11.30;;;8.75;;
39448;SDS011;25151;45.566;9.382;2022-12-26T04:07:16;9.07;;;8.15;;
39448;SDS011;25151;45.566;9.382;2022-12-26T04:10:45;9.85;;;7.75;;
39448;SDS011;25151;45.566;9.382;2022-12-26T04:14:56;9.43;;;8.40;;
39448;SDS011;25151;45.566;9.382;2022-12-26T04:17:56;10.27;;;8.07;;
39448;SDS011;25151;45.566;9.382;2022-12-26T04:24:49;10.15;;;9.05;;
39448;SDS011;25151;45.566;9.382;2022-12-26T04:28:18;9.90;;;7.82;;
39448;SDS011;25151;45.566;9.382;2022-12-26T04:31:44;10.00;;;8.25;;
39448;SDS011;25151;45.566;9.382;2022-12-26T04:35:17;10.50;;;8.52;;
39448;SDS011;25151;45.566;9.382;2022-12-26T04:38:51;10.10;;;8.65;;
39448;SDS011;25151;45.566;9.382;2022-12-26T04:42:14;9.88;;;8.07;;
39448;SDS011;25151;45.566;9.382;2022-12-26T04:48:40;10.05;;;9.00;;
39448;SDS011;25151;45.566;9.382;2022-12-26T04:52:04;10.50;;;8.40;;
39448;SDS011;25151;45.566;9.382;2022-12-26T04:55:06;10.10;;;8.65;;
39448;SDS011;25151;45.566;9.382;2022-12-26T04:58:07;10.93;;;8.80;;
39448;SDS011;25151;45.566;9.382;2022-12-26T05:01:08;10.20;;;7.93;;
39448;SDS011;25151;45.566;9.382;2022-12-26T05:04:31;9.70;;;8.45;;
39448;SDS011;25151;45.566;9.382;2022-12-26T05:07:50;11.77;;;8.57;;
39448;SDS011;25151;45.566;9.382;2022-12-26T05:11:09;17.25;;;9.68;;
39448;SDS011;25151;45.566;9.382;2022-12-26T05:14:10;12.90;;;8.32;;
39448;SDS011;25151;45.566;9.382;2022-12-26T05:20:31;10.48;;;8.80;;
39448;SDS011;25151;45.566;9.382;2022-12-26T05:23:49;10.25;;;8.57;;
39448;SDS011;25151;45.566;9.382;2022-12-26T05:27:10;12.75;;;8.52;;
39448;SDS011;25151;45.566;9.382;2022-12-26T05:30:33;11.05;;;8.23;;
39448;SDS011;25151;45.566;9.382;2022-12-26T05:33:34;12.45;;;8.10;;
39448;SDS011;25151;45.566;9.382;2022-12-26T05:36:54;10.65;;;8.13;;
39448;SDS011;25151;45.566;9.382;2022-12-26T05:39:57;8.48;;;7.57;;
39448;SDS011;25151;45.566;9.382;2022-12-26T05:42:58;8.63;;;7.72;;
39448;SDS011;25151;45.566;9.382;2022-12-26T05:45:59;11.02;;;7.95;;
39448;SDS011;25151;45.566;9.382;2022-12-26T05:48:59;10.07;;;7.88;;
39448;SDS011;25151;45.566;9.382;2022-12-26T05:52:00;13.45;;;8.50;;
39448;SDS011;25151;45.566;9.382;2022-12-26T05:55:01;9.15;;;7.90;;
39448;SDS011;25151;45.566;9.382;2022-12-26T05:58:02;13.18;;;8.65;;
39448;SDS011;25151;45.566;9.382;2022-12-26T06:01:04;10.70;;;8.07;;
39448;SDS011;25151;45.566;9.382;2022-12-26T06:04:06;10.63;;;8.48;;
39448;SDS011;25151;45.566;9.382;2022-12-26T06:07:06;9.90;;;7.88;;
39448;SDS011;25151;45.566;9.382;2022-12-26T06:10:07;10.25;;;7.53;;
39448;SDS011;25151;45.566;9.382;2022-12-26T06:13:08;10.63;;;8.18;;
39448;SDS011;25151;45.566;9.382;2022-12-26T06:16:11;9.98;;;8.32;;
39448;SDS011;25151;45.566;9.382;2022-12-26T06:19:13;10.68;;;8.52;;
39448;SDS011;25151;45.566;9.382;2022-12-26T06:22:14;9.80;;;7.70;;
39448;SDS011;25151;45.566;9.382;2022-12-26T06:25:14;11.65;;;8.18;;
39448;SDS011;25151;45.566;9.382;2022-12-26T06:28:15;11.95;;;8.93;;
39448;SDS011;25151;45.566;9.382;2022-12-26T06:31:17;9.48;;;8.23;;
39448;SDS011;25151;45.566;9.382;2022-12-26T06:34:20;9.88;;;7.95;;
39448;SDS011;25151;45.566;9.382;2022-12-26T06:37:21;9.77;;;7.90;;
39448;SDS011;25151;45.566;9.382;2022-12-26T06:40:21;9.80;;;8.18;;
39448;SDS011;25151;45.566;9.382;2022-12-26T06:43:22;9.30;;;7.90;;
39448;SDS011;25151;45.566;9.382;2022-12-26T06:46:23;10.32;;;8.02;;
39448;SDS011;25151;45.566;9.382;2022-12-26T06:49:25;9.85;;;7.95;;
39448;SDS011;25151;45.566;9.382;2022-12-26T06:52:26;10.80;;;8.13;;
39448;SDS011;25151;45.566;9.382;2022-12-26T06:55:27;10.38;;;8.18;;
39448;SDS011;25151;45.566;9.382;2022-12-26T06:58:27;10.35;;;8.32;;
39448;SDS011;25151;45.566;9.382;2022-12-26T07:01:28;9.05;;;7.90;;
39448;SDS011;25151;45.566;9.382;2022-12-26T07:04:30;10.20;;;8.05;;
39448;SDS011;25151;45.566;9.382;2022-12-26T07:07:31;10.02;;;8.15;;
39448;SDS011;25151;45.566;9.382;2022-12-26T07:10:35;9.60;;;8.32;;
39448;SDS011;25151;45.566;9.382;2022-12-26T07:13:36;12.55;;;8.38;;
39448;SDS011;25151;45.566;9.382;2022-12-26T07:16:37;9.15;;;8.07;;
39448;SDS011;25151;45.566;9.382;2022-12-26T07:19:39;9.02;;;7.60;;
39448;SDS011;25151;45.566;9.382;2022-12-26T07:22:40;9.48;;;8.48;;
39448;SDS011;25151;45.566;9.382;2022-12-26T07:25:41;10.23;;;8.38;;
39448;SDS011;25151;45.566;9.382;2022-12-26T07:28:44;11.27;;;8.48;;
39448;SDS011;25151;45.566;9.382;2022-12-26T07:31:47;8.77;;;7.20;;
39448;SDS011;25151;45.566;9.382;2022-12-26T07:34:49;11.13;;;8.40;;
39448;SDS011;25151;45.566;9.382;2022-12-26T07:37:52;9.98;;;8.60;;
39448;SDS011;25151;45.566;9.382;2022-12-26T07:40:55;9.38;;;7.95;;
39448;SDS011;25151;45.566;9.382;2022-12-26T07:44:00;9.73;;;8.00;;
39448;SDS011;25151;45.566;9.382;2022-12-26T07:47:01;10.00;;;7.80;;
39448;SDS011;25151;45.566;9.382;2022-12-26T07:50:02;9.80;;;8.32;;
39448;SDS011;25151;45.566;9.382;2022-12-26T07:53:04;10.98;;;8.63;;
39448;SDS011;25151;45.566;9.382;2022-12-26T07:56:05;11.30;;;8.27;;
39448;SDS011;25151;45.566;9.382;2022-12-26T07:59:14;9.23;;;8.27;;
39448;SDS011;25151;45.566;9.382;2022-12-26T08:02:17;10.38;;;7.47;;
39448;SDS011;25151;45.566;9.382;2022-12-26T08:05:21;11.43;;;8.57;;
39448;SDS011;25151;45.566;9.382;2022-12-26T08:08:28;11.65;;;8.57;;
39448;SDS011;25151;45.566;9.382;2022-12-26T08:11:33;10.02;;;8.80;;
39448;SDS011;25151;45.566;9.382;2022-12-26T08:14:39;9.68;;;8.25;;
39448;SDS011;25151;45.566;9.382;2022-12-26T08:17:40;9.57;;;8.35;;
39448;SDS011;25151;45.566;9.382;2022-12-26T08:20:41;9.35;;;8.10;;
39448;SDS011;25151;45.566;9.382;2022-12-26T08:23:44;11.95;;;8.45;;
39448;SDS011;25151;45.566;9.382;2022-12-26T08:26:47;12.90;;;9.00;;
39448;SDS011;25151;45.566;9.382;2022-12-26T08:29:49;8.95;;;7.93;;
39448;SDS011;25151;45.566;9.382;2022-12-26T08:32:51;9.80;;;8.63;;
39448;SDS011;25151;45.566;9.382;2022-12-26T08:35:52;12.18;;;8.77;;
39448;SDS011;25151;45.566;9.382;2022-12-26T08:38:57;12.32;;;8.63;;
39448;SDS011;25151;45.566;9.382;2022-12-26T08:42:01;9.73;;;8.70;;
39448;SDS011;25151;45.566;9.382;2022-12-26T08:45:03;11.10;;;8.82;;
39448;SDS011;25151;45.566;9.382;2022-12-26T08:48:05;11.95;;;8.98;;
39448;SDS011;25151;45.566;9.382;2022-12-26T08:51:16;15.43;;;9.68;;
39448;SDS011;25151;45.566;9.382;2022-12-26T08:54:20;9.05;;;7.85;;
39448;SDS011;25151;45.566;9.382;2022-12-26T08:57:21;11.40;;;9.05;;
39448;SDS011;25151;45.566;9.382;2022-12-26T09:00:21;11.02;;;7.88;;
39448;SDS011;25151;45.566;9.382;2022-12-26T09:03:25;12.20;;;8.10;;
39448;SDS011;25151;45.566;9.382;2022-12-26T09:06:26;13.43;;;8.18;;
39448;SDS011;25151;45.566;9.382;2022-12-26T09:09:27;15.55;;;8.80;;
39448;SDS011;25151;45.566;9.382;2022-12-26T09:12:28;12.13;;;8.77;;
39448;SDS011;25151;45.566;9.382;2022-12-26T09:15:28;12.52;;;9.07;;
39448;SDS011;25151;45.566;9.382;2022-12-26T09:18:29;11.68;;;8.50;;
39448;SDS011;25151;45.566;9.382;2022-12-26T09:21:30;11.07;;;7.95;;
39448;SDS011;25151;45.566;9.382;2022-12-26T09:24:32;12.10;;;8.02;;
39448;SDS011;25151;45.566;9.382;2022-12-26T09:27:32;11.15;;;8.60;;
39448;SDS011;25151;45.566;9.382;2022-12-26T09:30:33;15.23;;;9.02;;
39448;SDS011;25151;45.566;9.382;2022-12-26T09:33:34;10.00;;;8.18;;
39448;SDS011;25151;45.566;9.382;2022-12-26T09:36:37;10.35;;;8.27;;
39448;SDS011;25151;45.566;9.382;2022-12-26T09:39:38;10.93;;;8.70;;
39448;SDS011;25151;45.566;9.382;2022-12-26T09:42:42;14.80;;;8.35;;
39448;SDS011;25151;45.566;9.382;2022-12-26T09:49:10;13.43;;;8.75;;
39448;SDS011;25151;45.566;9.382;2022-12-26T09:52:17;11.68;;;8.60;;
39448;SDS011;25151;45.566;9.382;2022-12-26T09:55:32;8.95;;;7.43;;
39448;SDS011;25151;45.566;9.382;2022-12-26T09:58:48;10.80;;;8.00;;
39448;SDS011;25151;45.566;9.382;2022-12-26T10:01:52;9.52;;;7.88;;
39448;SDS011;25151;45.566;9.382;2022-12-26T10:04:53;13.20;;;8.82;;
39448;SDS011;25151;45.566;9.382;2022-12-26T10:07:56;12.05;;;7.90;;
39448;SDS011;25151;45.566;9.382;2022-12-26T10:11:40;8.75;;;7.47;;
39448;SDS011;25151;45.566;9.382;2022-12-26T10:14:52;8.20;;;7.25;;
39448;SDS011;25151;45.566;9.382;2022-12-26T10:18:23;11.35;;;8.05;;
39448;SDS011;25151;45.566;9.382;2022-12-26T10:21:46;8.70;;;7.80;;
39448;SDS011;25151;45.566;9.382;2022-12-26T10:24:49;10.20;;;8.00;;
39448;SDS011;25151;45.566;9.382;2022-12-26T10:27:51;10.23;;;6.85;;
39448;SDS011;25151;45.566;9.382;2022-12-26T10:30:52;9.15;;;6.95;;
39448;SDS011;25151;45.566;9.382;2022-12-26T10:40:57;11.82;;;7.88;;
39448;SDS011;25151;45.566;9.382;2022-12-26T10:43:51;11.85;;;6.97;;
39448;SDS011;25151;45.566;9.382;2022-12-26T10:46:55;9.15;;;7.28;;
39448;SDS011;25151;45.566;9.382;2022-12-26T10:50:05;9.98;;;7.07;;
39448;SDS011;25151;45.566;9.382;2022-12-26T10:53:06;9.02;;;6.88;;
39448;SDS011;25151;45.566;9.382;2022-12-26T10:56:11;10.73;;;7.05;;
39448;SDS011;25151;45.566;9.382;2022-12-26T10:59:16;9.90;;;6.95;;
39448;SDS011;25151;45.566;9.382;2022-12-26T11:02:24;9.30;;;7.10;;
39448;SDS011;25151;45.566;9.382;2022-12-26T11:05:27;10.80;;;7.65;;
39448;SDS011;25151;45.566;9.382;2022-12-26T11:11:37;12.25;;;7.53;;
39448;SDS011;25151;45.566;9.382;2022-12-26T11:14:47;9.13;;;7.03;;
39448;SDS011;25151;45.566;9.382;2022-12-26T11:17:50;10.35;;;7.28;;
39448;SDS011;25151;45.566;9.382;2022-12-26T11:20:55;12.98;;;8.00;;
39448;SDS011;25151;45.566;9.382;2022-12-26T11:24:17;13.10;;;8.40;;
39448;SDS011;25151;45.566;9.382;2022-12-26T11:27:22;12.13;;;9.05;;
39448;SDS011;25151;45.566;9.382;2022-12-26T11:36:34;13.80;;;7.45;;
39448;SDS011;25151;45.566;9.382;2022-12-26T11:39:36;11.30;;;7.25;;
39448;SDS011;25151;45.566;9.382;2022-12-26T11:42:37;13.77;;;8.23;;
39448;SDS011;25151;45.566;9.382;2022-12-26T11:45:41;13.10;;;8.88;;
39448;SDS011;25151;45.566;9.382;2022-12-26T11:48:49;17.17;;;8.90;;
39448;SDS011;25151;45.566;9.382;2022-12-26T11:51:51;17.60;;;7.85;;
39448;SDS011;25151;45.566;9.382;2022-12-26T11:54:52;15.73;;;8.60;;
39448;SDS011;25151;45.566;9.382;2022-12-26T12:01:11;11.25;;;7.90;;
39448;SDS011;25151;45.566;9.382;2022-12-26T12:04:15;11.57;;;7.88;;
39448;SDS011;25151;45.566;9.382;2022-12-26T12:17:35;12.50;;;8.20;;
39448;SDS011;25151;45.566;9.382;2022-12-26T12:21:06;10.98;;;7.35;;
39448;SDS011;25151;45.566;9.382;2022-12-26T12:27:38;13.50;;;7.82;;
39448;SDS011;25151;45.566;9.382;2022-12-26T12:31:00;14.70;;;7.65;;
39448;SDS011;25151;45.566;9.382;2022-12-26T12:37:49;12.90;;;7.63;;
39448;SDS011;25151;45.566;9.382;2022-12-26T12:41:26;12.25;;;7.90;;
39448;SDS011;25151;45.566;9.382;2022-12-26T12:45:08;10.75;;;7.53;;
39448;SDS011;25151;45.566;9.382;2022-12-26T13:01:18;14.13;;;7.75;;
39448;SDS011;25151;45.566;9.382;2022-12-26T13:04:33;11.10;;;7.22;;
39448;SDS011;25151;45.566;9.382;2022-12-26T13:07:39;12.40;;;7.95;;
39448;SDS011;25151;45.566;9.382;2022-12-26T13:10:51;12.77;;;7.38;;
39448;SDS011;25151;45.566;9.382;2022-12-26T13:14:01;10.40;;;7.90;;
39448;SDS011;25151;45.566;9.382;2022-12-26T13:17:08;14.15;;;7.28;;
39448;SDS011;25151;45.566;9.382;2022-12-26T13:20:14;9.70;;;7.28;;
39448;SDS011;25151;45.566;9.382;2022-12-26T13:30:36;11.80;;;7.27;;
39448;SDS011;25151;45.566;9.382;2022-12-26T13:33:37;13.13;;;7.05;;
39448;SDS011;25151;45.566;9.382;2022-12-26T13:39:44;11.65;;;8.45;;
39448;SDS011;25151;45.566;9.382;2022-12-26T13:46:52;10.70;;;6.68;;
39448;SDS011;25151;45.566;9.382;2022-12-26T13:49:39;11.98;;;6.43;;
39448;SDS011;25151;45.566;9.382;2022-12-26T13:52:40;12.43;;;7.38;;
39448;SDS011;25151;45.566;9.382;2022-12-26T13:55:42;11.77;;;8.13;;
39448;SDS011;25151;45.566;9.382;2022-12-26T14:02:19;11.07;;;7.00;;
39448;SDS011;25151;45.566;9.382;2022-12-26T14:06:06;10.77;;;6.32;;
39448;SDS011;25151;45.566;9.382;2022-12-26T14:16:00;8.57;;;6.57;;
39448;SDS011;25151;45.566;9.382;2022-12-26T14:22:13;8.50;;;6.28;;
39448;SDS011;25151;45.566;9.382;2022-12-26T14:25:31;10.65;;;6.13;;
39448;SDS011;25151;45.566;9.382;2022-12-26T14:28:59;7.78;;;6.60;;
39448;SDS011;25151;45.566;9.382;2022-12-26T14:32:51;10.70;;;6.90;;
39448;SDS011;25151;45.566;9.382;2022-12-26T14:38:49;8.65;;;6.38;;
39448;SDS011;25151;45.566;9.382;2022-12-26T14:51:30;7.28;;;5.93;;
39448;SDS011;25151;45.566;9.382;2022-12-26T14:54:35;7.03;;;5.80;;
39448;SDS011;25151;45.566;9.382;2022-12-26T15:00:43;8.88;;;6.40;;
39448;SDS011;25151;45.566;9.382;2022-12-26T15:30:46;7.32;;;6.13;;
39448;SDS011;25151;45.566;9.382;2022-12-26T15:37:11;10.10;;;6.47;;
39448;SDS011;25151;45.566;9.382;2022-12-26T15:46:34;11.38;;;5.93;;
39448;SDS011;25151;45.566;9.382;2022-12-26T15:56:55;10.57;;;5.80;;
39448;SDS011;25151;45.566;9.382;2022-12-26T16:13:25;6.53;;;5.65;;
39448;SDS011;25151;45.566;9.382;2022-12-26T16:16:34;6.25;;;5.22;;
39448;SDS011;25151;45.566;9.382;2022-12-26T16:19:40;6.45;;;5.35;;
39448;SDS011;25151;45.566;9.382;2022-12-26T16:22:47;7.45;;;5.40;;
39448;SDS011;25151;45.566;9.382;2022-12-26T16:25:52;12.00;;;6.25;;
39448;SDS011;25151;45.566;9.382;2022-12-26T16:28:56;7.00;;;5.70;;
39448;SDS011;25151;45.566;9.382;2022-12-26T16:32:02;7.43;;;5.53;;
39448;SDS011;25151;45.566;9.382;2022-12-26T16:35:17;14.95;;;5.95;;
39448;SDS011;25151;45.566;9.382;2022-12-26T16:38:28;13.45;;;5.95;;
39448;SDS011;25151;45.566;9.382;2022-12-26T16:41:30;8.43;;;6.10;;
39448;SDS011;25151;45.566;9.382;2022-12-26T16:44:39;9.55;;;5.82;;
39448;SDS011;25151;45.566;9.382;2022-12-26T16:47:45;8.15;;;6.28;;
39448;SDS011;25151;45.566;9.382;2022-12-26T16:53:56;7.18;;;5.15;;
39448;SDS011;25151;45.566;9.382;2022-12-26T16:57:18;8.82;;;5.35;;
39448;SDS011;25151;45.566;9.382;2022-12-26T17:00:21;9.40;;;5.30;;
39448;SDS011;25151;45.566;9.382;2022-12-26T17:03:25;8.65;;;6.15;;
39448;SDS011;25151;45.566;9.382;2022-12-26T17:06:56;8.38;;;5.25;;
39448;SDS011;25151;45.566;9.382;2022-12-26T17:10:16;7.75;;;5.00;;
39448;SDS011;25151;45.566;9.382;2022-12-26T17:13:24;7.13;;;5.68;;
39448;SDS011;25151;45.566;9.382;2022-12-26T17:16:27;7.18;;;5.38;;
39448;SDS011;25151;45.566;9.382;2022-12-26T17:19:31;6.80;;;5.40;;
39448;SDS011;25151;45.566;9.382;2022-12-26T17:22:36;5.93;;;5.30;;
39448;SDS011;25151;45.566;9.382;2022-12-26T17:25:40;7.68;;;5.47;;
39448;SDS011;25151;45.566;9.382;2022-12-26T17:28:41;5.80;;;4.88;;
39448;SDS011;25151;45.566;9.382;2022-12-26T17:31:43;7.80;;;5.25;;
39448;SDS011;25151;45.566;9.382;2022-12-26T17:34:45;7.15;;;5.93;;
39448;SDS011;25151;45.566;9.382;2022-12-26T17:37:47;8.50;;;5.68;;
39448;SDS011;25151;45.566;9.382;2022-12-26T17:40:51;8.35;;;5.35;;
39448;SDS011;25151;45.566;9.382;2022-12-26T17:43:54;7.15;;;5.78;;
39448;SDS011;25151;45.566;9.382;2022-12-26T17:46:56;8.60;;;5.90;;
39448;SDS011;25151;45.566;9.382;2022-12-26T17:49:59;7.65;;;6.35;;
39448;SDS011;25151;45.566;9.382;2022-12-26T17:56:09;7.50;;;5.00;;
39448;SDS011;25151;45.566;9.382;2022-12-26T17:59:14;8.05;;;6.40;;
39448;SDS011;25151;45.566;9.382;2022-12-26T18:02:18;10.43;;;5.07;;
39448;SDS011;25151;45.566;9.382;2022-12-26T18:05:20;5.68;;;4.90;;
39448;SDS011;25151;45.566;9.382;2022-12-26T18:08:29;7.60;;;5.00;;
39448;SDS011;25151;45.566;9.382;2022-12-26T18:11:36;6.90;;;5.60;;
39448;SDS011;25151;45.566;9.382;2022-12-26T18:14:38;6.95;;;5.97;;
39448;SDS011;25151;45.566;9.382;2022-12-26T18:17:39;6.32;;;4.88;;
39448;SDS011;25151;45.566;9.382;2022-12-26T18:20:40;6.45;;;5.55;;
39448;SDS011;25151;45.566;9.382;2022-12-26T18:23:42;8.48;;;5.50;;
39448;SDS011;25151;45.566;9.382;2022-12-26T18:26:45;8.68;;;5.72;;
39448;SDS011;25151;45.566;9.382;2022-12-26T18:29:47;7.40;;;5.43;;
39448;SDS011;25151;45.566;9.382;2022-12-26T18:32:50;7.75;;;5.65;;
39448;SDS011;25151;45.566;9.382;2022-12-26T18:35:52;8.90;;;5.50;;
39448;SDS011;25151;45.566;9.382;2022-12-26T18:38:57;7.85;;;4.90;;
39448;SDS011;25151;45.566;9.382;2022-12-26T18:41:58;8.02;;;5.60;;
39448;SDS011;25151;45.566;9.382;2022-12-26T18:44:59;8.13;;;6.28;;
39448;SDS011;25151;45.566;9.382;2022-12-26T18:48:02;7.95;;;5.57;;
39448;SDS011;25151;45.566;9.382;2022-12-26T18:51:04;6.78;;;5.75;;
39448;SDS011;25151;45.566;9.382;2022-12-26T18:54:05;7.35;;;5.80;;
39448;SDS011;25151;45.566;9.382;2022-12-26T18:57:09;6.68;;;5.25;;
39448;SDS011;25151;45.566;9.382;2022-12-26T19:00:16;7.28;;;5.10;;
39448;SDS011;25151;45.566;9.382;2022-12-26T19:03:19;7.22;;;5.05;;
39448;SDS011;25151;45.566;9.382;2022-12-26T19:06:21;5.63;;;4.95;;
39448;SDS011;25151;45.566;9.382;2022-12-26T19:09:25;8.00;;;6.18;;
39448;SDS011;25151;45.566;9.382;2022-12-26T19:12:26;5.57;;;5.00;;
39448;SDS011;25151;45.566;9.382;2022-12-26T19:15:27;11.43;;;5.75;;
39448;SDS011;25151;45.566;9.382;2022-12-26T19:18:30;6.55;;;5.47;;
39448;SDS011;25151;45.566;9.382;2022-12-26T19:21:32;6.10;;;5.00;;
39448;SDS011;25151;45.566;9.382;2022-12-26T19:24:33;6.35;;;5.20;;
39448;SDS011;25151;45.566;9.382;2022-12-26T19:27:37;6.90;;;5.10;;
39448;SDS011;25151;45.566;9.382;2022-12-26T19:30:38;7.50;;;5.68;;
39448;SDS011;25151;45.566;9.382;2022-12-26T19:33:40;6.05;;;5.07;;
39448;SDS011;25151;45.566;9.382;2022-12-26T19:36:42;7.20;;;5.25;;
39448;SDS011;25151;45.566;9.382;2022-12-26T19:39:44;6.78;;;5.25;;
39448;SDS011;25151;45.566;9.382;2022-12-26T19:42:46;5.63;;;4.68;;
39448;SDS011;25151;45.566;9.382;2022-12-26T19:45:47;7.60;;;5.35;;
39448;SDS011;25151;45.566;9.382;2022-12-26T19:48:58;6.77;;;5.13;;
39448;SDS011;25151;45.566;9.382;2022-12-26T19:52:00;5.88;;;4.97;;
39448;SDS011;25151;45.566;9.382;2022-12-26T19:55:02;5.97;;;5.20;;
39448;SDS011;25151;45.566;9.382;2022-12-26T19:58:05;8.05;;;4.93;;
39448;SDS011;25151;45.566;9.382;2022-12-26T20:01:09;5.60;;;4.68;;
39448;SDS011;25151;45.566;9.382;2022-12-26T20:04:16;7.95;;;4.88;;
39448;SDS011;25151;45.566;9.382;2022-12-26T20:07:18;7.85;;;5.43;;
39448;SDS011;25151;45.566;9.382;2022-12-26T20:10:21;8.07;;;5.07;;
39448;SDS011;25151;45.566;9.382;2022-12-26T20:13:22;6.13;;;4.88;;
39448;SDS011;25151;45.566;9.382;2022-12-26T20:16:28;5.85;;;4.80;;
39448;SDS011;25151;45.566;9.382;2022-12-26T20:19:33;5.82;;;4.47;;
39448;SDS011;25151;45.566;9.382;2022-12-26T20:22:36;6.07;;;5.03;;
39448;SDS011;25151;45.566;9.382;2022-12-26T20:25:38;8.35;;;5.07;;
39448;SDS011;25151;45.566;9.382;2022-12-26T20:28:39;5.63;;;4.57;;
39448;SDS011;25151;45.566;9.382;2022-12-26T20:31:44;5.88;;;4.65;;
39448;SDS011;25151;45.566;9.382;2022-12-26T20:34:46;7.38;;;4.30;;
39448;SDS011;25151;45.566;9.382;2022-12-26T20:37:48;7.03;;;4.80;;
39448;SDS011;25151;45.566;9.382;2022-12-26T20:40:49;5.63;;;4.28;;
39448;SDS011;25151;45.566;9.382;2022-12-26T20:43:52;7.45;;;5.05;;
39448;SDS011;25151;45.566;9.382;2022-12-26T20:46:54;6.55;;;4.72;;
39448;SDS011;25151;45.566;9.382;2022-12-26T20:49:57;4.78;;;4.30;;
39448;SDS011;25151;45.566;9.382;2022-12-26T20:53:03;5.68;;;4.60;;
39448;SDS011;25151;45.566;9.382;2022-12-26T20:56:06;5.82;;;4.57;;
39448;SDS011;25151;45.566;9.382;2022-12-26T20:59:10;6.25;;;4.50;;
39448;SDS011;25151;45.566;9.382;2022-12-26T21:02:15;5.60;;;4.97;;
39448;SDS011;25151;45.566;9.382;2022-12-26T21:05:18;6.00;;;5.00;;
39448;SDS011;25151;45.566;9.382;2022-12-26T21:08:20;7.00;;;4.45;;
39448;SDS011;25151;45.566;9.382;2022-12-26T21:11:24;6.22;;;4.63;;
39448;SDS011;25151;45.566;9.382;2022-12-26T21:14:28;6.13;;;4.60;;
39448;SDS011;25151;45.566;9.382;2022-12-26T21:17:30;5.50;;;4.50;;
39448;SDS011;25151;45.566;9.382;2022-12-26T21:20:32;5.97;;;4.60;;
39448;SDS011;25151;45.566;9.382;2022-12-26T21:23:37;6.07;;;5.18;;
39448;SDS011;25151;45.566;9.382;2022-12-26T21:26:39;6.75;;;4.53;;
39448;SDS011;25151;45.566;9.382;2022-12-26T21:29:44;5.50;;;4.18;;
39448;SDS011;25151;45.566;9.382;2022-12-26T21:32:48;5.25;;;4.15;;
39448;SDS011;25151;45.566;9.382;2022-12-26T21:35:49;6.43;;;4.97;;
39448;SDS011;25151;45.566;9.382;2022-12-26T21:38:56;5.50;;;4.65;;
39448;SDS011;25151;45.566;9.382;2022-12-26T21:41:59;6.32;;;5.35;;
39448;SDS011;25151;45.566;9.382;2022-12-26T21:45:05;5.78;;;4.82;;
39448;SDS011;25151;45.566;9.382;2022-12-26T21:48:07;5.13;;;4.55;;
39448;SDS011;25151;45.566;9.382;2022-12-26T21:51:09;5.38;;;4.47;;
39448;SDS011;25151;45.566;9.382;2022-12-26T21:54:11;8.75;;;4.70;;
39448;SDS011;25151;45.566;9.382;2022-12-26T21:57:33;7.35;;;5.13;;
39448;SDS011;25151;45.566;9.382;2022-12-26T22:00:36;7.75;;;4.93;;